aviador You're here:

LFMO Decoded Metar

ORANGE in FRANCE
Report Time2018-05-22 23:00:00
UTC Time2018-05-22 23:27:23
Flight Rules ifr IFR
WindCalm
Visibility9999 m
Phenomena:Mist
Clouds:N/A
Expected CloudBase > 400 ft AGL from Temp-Dew spread
Ceiling700 ft
Temp15°C (ISA 0)
Dew Point14°C (94% RH)
QNH1016 hPa
Density Alt335 ft
Elevation180 ft
Report Wrong Elevation
Raw Report
LFMO 222300Z AUTO 00000KT CAVOK 15/14 Q1016 TEMPO 3000 BR
BKN007=

Extra information for LFMO:More info

Metar Taf Metar & Taf Last 4 Metars F.Rules Stats Wind Profile Meteogram Temp Stats Airport Information Weather charts Add Link Nearby VenuesMetar ALERT Operation Metar Decoded Social comments